sensor_id;sensor_type;location;lat;lon;timestamp;pressure;altitude;pressure_sealevel;temperature;humidity
69593;BME280;56796;50.122;14.468;2023-07-20T00:06:42;974.57;;;18.65;72.65
69593;BME280;56796;50.122;14.468;2023-07-20T00:26:08;974.78;;;18.75;72.79
69593;BME280;56796;50.122;14.468;2023-07-20T00:45:36;974.66;;;18.54;73.31
69593;BME280;56796;50.122;14.468;2023-07-20T01:05:05;974.87;;;18.45;73.86
69593;BME280;56796;50.122;14.468;2023-07-20T01:43:57;975.06;;;18.64;73.4
69593;BME280;56796;50.122;14.468;2023-07-20T02:03:22;975.03;;;18.61;72.95
69593;BME280;56796;50.122;14.468;2023-07-20T02:22:48;974.92;;;18.35;73.7
69593;BME280;56796;50.122;14.468;2023-07-20T02:42:17;975.04;;;18.14;74.43
69593;BME280;56796;50.122;14.468;2023-07-20T03:01:34;975.13;;;18.2;74.48
69593;BME280;56796;50.122;14.468;2023-07-20T03:21:01;975.26;;;17.85;75.6
69593;BME280;56796;50.122;14.468;2023-07-20T03:40:27;975.25;;;17.87;76.49
69593;BME280;56796;50.122;14.468;2023-07-20T03:59:53;975.42;;;18.04;75.93
69593;BME280;56796;50.122;14.468;2023-07-20T04:19:21;975.4;;;17.95;77.02
69593;BME280;56796;50.122;14.468;2023-07-20T04:38:51;975.62;;;18.21;76.3
69593;BME280;56796;50.122;14.468;2023-07-20T04:58:10;975.65;;;18.45;75.89
69593;BME280;56796;50.122;14.468;2023-07-20T05:17:39;975.66;;;18.79;74.83
69593;BME280;56796;50.122;14.468;2023-07-20T05:37:07;975.8;;;19.1;74.03
69593;BME280;56796;50.122;14.468;2023-07-20T05:56:39;975.81;;;19.28;72.56
69593;BME280;56796;50.122;14.468;2023-07-20T06:16:00;975.91;;;20.24;70.78
69593;BME280;56796;50.122;14.468;2023-07-20T06:35:29;975.92;;;20.84;68.64
69593;BME280;56796;50.122;14.468;2023-07-20T06:55:00;975.84;;;21.09;66.08
69593;BME280;56796;50.122;14.468;2023-07-20T07:14:29;975.98;;;21.76;63.88
69593;BME280;56796;50.122;14.468;2023-07-20T07:34:03;975.93;;;22.57;59.75
69593;BME280;56796;50.122;14.468;2023-07-20T07:53:31;976.1;;;21.72;59.48
69593;BME280;56796;50.122;14.468;2023-07-20T08:12:56;976.11;;;22.45;57.91
69593;BME280;56796;50.122;14.468;2023-07-20T08:32:28;976.14;;;24.33;54.26
69593;BME280;56796;50.122;14.468;2023-07-20T08:51:59;976.1;;;24.8;51.86
69593;BME280;56796;50.122;14.468;2023-07-20T09:11:27;976.09;;;23.85;52.82
69593;BME280;56796;50.122;14.468;2023-07-20T09:30:50;976.14;;;23.26;52.28
69593;BME280;56796;50.122;14.468;2023-07-20T09:50:22;975.97;;;25.92;45.84
69593;BME280;56796;50.122;14.468;2023-07-20T10:09:55;975.99;;;24.91;45.46
69593;BME280;56796;50.122;14.468;2023-07-20T10:29:17;975.96;;;24.51;47.44
69593;BME280;56796;50.122;14.468;2023-07-20T11:08:12;975.94;;;25.8;44.95
69593;BME280;56796;50.122;14.468;2023-07-20T11:47:08;975.69;;;27.27;40.97
69593;BME280;56796;50.122;14.468;2023-07-20T12:06:35;975.47;;;27.68;40.19
69593;BME280;56796;50.122;14.468;2023-07-20T12:26:02;975.49;;;25.7;41.54
69593;BME280;56796;50.122;14.468;2023-07-20T12:45:25;975.36;;;27.76;40.69
69593;BME280;56796;50.122;14.468;2023-07-20T13:04:55;975.41;;;25.72;42.43
69593;BME280;56796;50.122;14.468;2023-07-20T13:24:28;975.24;;;28.31;36.93
69593;BME280;56796;50.122;14.468;2023-07-20T13:43:55;975.1;;;26.19;39.2
69593;BME280;56796;50.122;14.468;2023-07-20T14:03:20;975.11;;;26.41;38.02
69593;BME280;56796;50.122;14.468;2023-07-20T14:22:54;975.16;;;27.92;35.29
69593;BME280;56796;50.122;14.468;2023-07-20T14:42:21;975.24;;;26.82;36.39
69593;BME280;56796;50.122;14.468;2023-07-20T15:01:42;975.23;;;25.01;43.82
69593;BME280;56796;50.122;14.468;2023-07-20T15:21:11;975.47;;;24.39;47.32
69593;BME280;56796;50.122;14.468;2023-07-20T15:40:23;975.5;;;24.23;48.1
69593;BME280;56796;50.122;14.468;2023-07-20T15:59:48;975.6;;;23.29;49.78
69593;BME280;56796;50.122;14.468;2023-07-20T16:19:13;975.65;;;23.19;49.19
69593;BME280;56796;50.122;14.468;2023-07-20T16:38:39;975.75;;;23.31;46.85
69593;BME280;56796;50.122;14.468;2023-07-20T16:58:03;975.93;;;22.77;48.92
69593;BME280;56796;50.122;14.468;2023-07-20T17:17:30;975.9;;;22.24;49.93
69593;BME280;56796;50.122;14.468;2023-07-20T17:36:55;975.99;;;21.95;50.28
69593;BME280;56796;50.122;14.468;2023-07-20T17:56:20;976.15;;;21.38;51.45
69593;BME280;56796;50.122;14.468;2023-07-20T18:35:12;976.18;;;20.67;54.15
69593;BME280;56796;50.122;14.468;2023-07-20T18:54:38;976.27;;;20.46;55.16
69593;BME280;56796;50.122;14.468;2023-07-20T19:14:04;976.49;;;20.23;56.78
69593;BME280;56796;50.122;14.468;2023-07-20T19:33:31;976.78;;;19.92;58.64
69593;BME280;56796;50.122;14.468;2023-07-20T19:52:57;976.86;;;19.67;60.27
69593;BME280;56796;50.122;14.468;2023-07-20T20:12:22;976.96;;;19.34;62.02
69593;BME280;56796;50.122;14.468;2023-07-20T20:31:49;976.95;;;19.54;62.44
69593;BME280;56796;50.122;14.468;2023-07-20T20:51:15;976.9;;;19.59;62.17
69593;BME280;56796;50.122;14.468;2023-07-20T21:10:43;977.03;;;18.79;64.49
69593;BME280;56796;50.122;14.468;2023-07-20T21:30:11;977.1;;;18.54;65.21
69593;BME280;56796;50.122;14.468;2023-07-20T21:49:29;977.2;;;18.59;65.59
69593;BME280;56796;50.122;14.468;2023-07-20T22:08:55;977.35;;;17.98;67.35
69593;BME280;56796;50.122;14.468;2023-07-20T22:28:20;977.25;;;18.1;66.89
69593;BME280;56796;50.122;14.468;2023-07-20T22:47:47;977;;;17.9;67.54
69593;BME280;56796;50.122;14.468;2023-07-20T23:07:14;976.93;;;18.1;67.13
69593;BME280;56796;50.122;14.468;2023-07-20T23:26:41;976.89;;;17.95;67.3
69593;BME280;56796;50.122;14.468;2023-07-20T23:46:07;976.94;;;17.74;68.2
